Terminal Aerodrome Forecast
Issued by NWS Glasgow, MT

Home | Current Version | Previous Version | Text Only | Print | Product List | Glossary On
Versions: 1 2 3 4 5 6 7 8 9 10 11 12
000
FTUS45 KGGW 251720
TAFGGW
TAF
KGGW 251720Z 2518/2618 VRB05KT P6SM FEW030 SCT070
     FM260000 30007KT P6SM VCSH SCT070
     FM261200 31006KT P6SM -SHRA BKN060=

USA.gov is the U.S. government's official web portal to all federal, state and local government web resources and services.